sensor_id;sensor_type;location;lat;lon;timestamp;pressure;altitude;pressure_sealevel;temperature;humidity
70968;BME280;58629;48.808;8.820;2024-01-10T00:01:08;97880.31;;;-6.18;100.00
70968;BME280;58629;48.808;8.820;2024-01-10T00:03:33;97884.66;;;-6.14;100.00
70968;BME280;58629;48.808;8.820;2024-01-10T00:06:01;97879.13;;;-6.07;100.00
70968;BME280;58629;48.808;8.820;2024-01-10T00:08:26;97878.81;;;-6.06;100.00
70968;BME280;58629;48.808;8.820;2024-01-10T00:10:52;97875.75;;;-6.08;99.57
70968;BME280;58629;48.808;8.820;2024-01-10T00:13:19;97874.44;;;-6.05;100.00
70968;BME280;58629;48.808;8.820;2024-01-10T00:15:45;97874.16;;;-6.04;100.00
70968;BME280;58629;48.808;8.820;2024-01-10T00:18:10;97869.00;;;-6.04;100.00
70968;BME280;58629;48.808;8.820;2024-01-10T00:20:35;97868.75;;;-6.02;100.00
70968;BME280;58629;48.808;8.820;2024-01-10T00:23:01;97866.06;;;-5.97;100.00
70968;BME280;58629;48.808;8.820;2024-01-10T00:25:26;97858.34;;;-5.97;99.84
70968;BME280;58629;48.808;8.820;2024-01-10T00:27:51;97858.53;;;-5.94;99.82
70968;BME280;58629;48.808;8.820;2024-01-10T00:30:17;97861.34;;;-5.90;100.00
70968;BME280;58629;48.808;8.820;2024-01-10T00:32:42;97856.44;;;-5.92;99.33
70968;BME280;58629;48.808;8.820;2024-01-10T00:35:07;97863.63;;;-5.89;99.90
70968;BME280;58629;48.808;8.820;2024-01-10T00:37:33;97856.09;;;-5.85;99.74
70968;BME280;58629;48.808;8.820;2024-01-10T00:39:58;97857.88;;;-5.86;99.81
70968;BME280;58629;48.808;8.820;2024-01-10T00:42:23;97851.50;;;-5.88;99.13
70968;BME280;58629;48.808;8.820;2024-01-10T00:44:49;97850.16;;;-5.86;99.79
70968;BME280;58629;48.808;8.820;2024-01-10T00:47:14;97853.41;;;-5.80;100.00
70968;BME280;58629;48.808;8.820;2024-01-10T00:49:39;97857.16;;;-5.86;99.64
70968;BME280;58629;48.808;8.820;2024-01-10T00:52:05;97856.25;;;-5.82;100.00
70968;BME280;58629;48.808;8.820;2024-01-10T00:54:30;97856.56;;;-5.83;99.57
70968;BME280;58629;48.808;8.820;2024-01-10T00:56:55;97854.00;;;-5.83;99.95
70968;BME280;58629;48.808;8.820;2024-01-10T00:59:21;97852.94;;;-5.82;99.92
70968;BME280;58629;48.808;8.820;2024-01-10T01:01:46;97859.16;;;-5.83;100.00
70968;BME280;58629;48.808;8.820;2024-01-10T01:04:11;97860.09;;;-5.79;100.00
70968;BME280;58629;48.808;8.820;2024-01-10T01:06:37;97860.28;;;-5.76;100.00
70968;BME280;58629;48.808;8.820;2024-01-10T01:09:02;97860.00;;;-5.74;100.00
70968;BME280;58629;48.808;8.820;2024-01-10T01:11:27;97860.22;;;-5.71;100.00
70968;BME280;58629;48.808;8.820;2024-01-10T01:13:53;97859.16;;;-5.70;100.00
70968;BME280;58629;48.808;8.820;2024-01-10T01:16:18;97860.88;;;-5.65;100.00
70968;BME280;58629;48.808;8.820;2024-01-10T01:18:43;97859.81;;;-5.64;100.00
70968;BME280;58629;48.808;8.820;2024-01-10T01:21:13;97855.38;;;-5.59;100.00
70968;BME280;58629;48.808;8.820;2024-01-10T01:23:39;97859.47;;;-5.58;100.00
70968;BME280;58629;48.808;8.820;2024-01-10T01:26:04;97863.31;;;-5.55;100.00
70968;BME280;58629;48.808;8.820;2024-01-10T01:28:29;97859.66;;;-5.54;100.00
70968;BME280;58629;48.808;8.820;2024-01-10T01:30:55;97854.63;;;-5.46;100.00
70968;BME280;58629;48.808;8.820;2024-01-10T01:33:20;97859.00;;;-5.46;100.00
70968;BME280;58629;48.808;8.820;2024-01-10T01:35:46;97851.25;;;-5.46;100.00
70968;BME280;58629;48.808;8.820;2024-01-10T01:38:11;97847.25;;;-5.39;100.00
70968;BME280;58629;48.808;8.820;2024-01-10T01:40:36;97854.44;;;-5.36;100.00
70968;BME280;58629;48.808;8.820;2024-01-10T01:43:02;97857.41;;;-5.29;100.00
70968;BME280;58629;48.808;8.820;2024-01-10T01:45:27;97848.97;;;-5.34;100.00
70968;BME280;58629;48.808;8.820;2024-01-10T01:47:52;97850.31;;;-5.37;100.00
70968;BME280;58629;48.808;8.820;2024-01-10T01:50:18;97846.50;;;-5.39;99.96
70968;BME280;58629;48.808;8.820;2024-01-10T01:52:44;97850.13;;;-5.40;99.74
70968;BME280;58629;48.808;8.820;2024-01-10T01:55:10;97847.47;;;-5.35;100.00
70968;BME280;58629;48.808;8.820;2024-01-10T01:57:37;97853.09;;;-5.33;100.00
70968;BME280;58629;48.808;8.820;2024-01-10T02:00:03;97850.78;;;-5.35;99.82
70968;BME280;58629;48.808;8.820;2024-01-10T02:02:30;97845.84;;;-5.31;99.61
70968;BME280;58629;48.808;8.820;2024-01-10T02:04:56;97848.91;;;-5.29;100.00
70968;BME280;58629;48.808;8.820;2024-01-10T02:07:22;97840.69;;;-5.31;99.30
70968;BME280;58629;48.808;8.820;2024-01-10T02:09:47;97852.72;;;-5.27;99.63
70968;BME280;58629;48.808;8.820;2024-01-10T02:12:13;97853.78;;;-5.28;100.00
70968;BME280;58629;48.808;8.820;2024-01-10T02:14:38;97849.88;;;-5.25;99.80
70968;BME280;58629;48.808;8.820;2024-01-10T02:17:04;97851.19;;;-5.28;98.61
70968;BME280;58629;48.808;8.820;2024-01-10T02:19:29;97848.69;;;-5.33;97.36
70968;BME280;58629;48.808;8.820;2024-01-10T02:21:56;97844.13;;;-5.22;97.96
70968;BME280;58629;48.808;8.820;2024-01-10T02:24:21;97841.94;;;-5.15;98.00
70968;BME280;58629;48.808;8.820;2024-01-10T02:26:47;97840.09;;;-5.14;97.99
70968;BME280;58629;48.808;8.820;2024-01-10T02:29:13;97835.59;;;-5.09;98.19
70968;BME280;58629;48.808;8.820;2024-01-10T02:31:38;97840.19;;;-5.06;97.16
70968;BME280;58629;48.808;8.820;2024-01-10T02:34:03;97831.13;;;-5.03;96.98
70968;BME280;58629;48.808;8.820;2024-01-10T02:36:29;97834.66;;;-4.99;97.52
70968;BME280;58629;48.808;8.820;2024-01-10T02:38:54;97834.66;;;-4.99;97.73
70968;BME280;58629;48.808;8.820;2024-01-10T02:41:20;97833.88;;;-5.00;97.79
70968;BME280;58629;48.808;8.820;2024-01-10T02:43:46;97829.75;;;-5.01;97.48
70968;BME280;58629;48.808;8.820;2024-01-10T02:46:11;97833.13;;;-5.00;96.74
70968;BME280;58629;48.808;8.820;2024-01-10T02:48:36;97826.13;;;-5.00;96.29
70968;BME280;58629;48.808;8.820;2024-01-10T02:51:02;97827.38;;;-4.97;96.12
70968;BME280;58629;48.808;8.820;2024-01-10T02:53:27;97817.53;;;-4.95;96.33
70968;BME280;58629;48.808;8.820;2024-01-10T02:55:52;97815.22;;;-4.97;96.68
70968;BME280;58629;48.808;8.820;2024-01-10T02:58:18;97819.63;;;-4.97;97.45
70968;BME280;58629;48.808;8.820;2024-01-10T03:00:43;97817.06;;;-4.97;97.61
70968;BME280;58629;48.808;8.820;2024-01-10T03:03:09;97808.53;;;-4.98;98.23
70968;BME280;58629;48.808;8.820;2024-01-10T03:05:34;97814.47;;;-4.97;97.70
70968;BME280;58629;48.808;8.820;2024-01-10T03:07:59;97814.75;;;-4.99;97.27
70968;BME280;58629;48.808;8.820;2024-01-10T03:10:26;97816.28;;;-4.98;96.63
70968;BME280;58629;48.808;8.820;2024-01-10T03:12:52;97811.00;;;-4.93;96.94
70968;BME280;58629;48.808;8.820;2024-01-10T03:15:17;97806.78;;;-4.89;97.83
70968;BME280;58629;48.808;8.820;2024-01-10T03:17:43;97806.53;;;-4.87;98.40
70968;BME280;58629;48.808;8.820;2024-01-10T03:20:08;97803.81;;;-4.82;98.99
70968;BME280;58629;48.808;8.820;2024-01-10T03:22:34;97809.75;;;-4.82;98.17
70968;BME280;58629;48.808;8.820;2024-01-10T03:24:59;97803.81;;;-4.82;98.20
70968;BME280;58629;48.808;8.820;2024-01-10T03:27:25;97806.59;;;-4.79;97.13
70968;BME280;58629;48.808;8.820;2024-01-10T03:29:50;97803.69;;;-4.77;96.13
70968;BME280;58629;48.808;8.820;2024-01-10T03:32:15;97801.31;;;-4.74;95.89
70968;BME280;58629;48.808;8.820;2024-01-10T03:34:41;97801.59;;;-4.75;95.42
70968;BME280;58629;48.808;8.820;2024-01-10T03:37:07;97799.00;;;-4.75;94.66
70968;BME280;58629;48.808;8.820;2024-01-10T03:39:33;97799.41;;;-4.68;95.08
70968;BME280;58629;48.808;8.820;2024-01-10T03:41:58;97800.63;;;-4.66;94.50
70968;BME280;58629;48.808;8.820;2024-01-10T03:44:23;97800.16;;;-4.68;93.11
70968;BME280;58629;48.808;8.820;2024-01-10T03:46:49;97809.34;;;-4.62;94.64
70968;BME280;58629;48.808;8.820;2024-01-10T03:49:14;97801.00;;;-4.59;96.62
70968;BME280;58629;48.808;8.820;2024-01-10T03:51:39;97802.06;;;-4.60;97.93
70968;BME280;58629;48.808;8.820;2024-01-10T03:54:05;97805.13;;;-4.58;99.18
70968;BME280;58629;48.808;8.820;2024-01-10T03:56:31;97809.69;;;-4.55;98.29
70968;BME280;58629;48.808;8.820;2024-01-10T03:58:56;97806.53;;;-4.52;96.86
70968;BME280;58629;48.808;8.820;2024-01-10T04:01:22;97806.34;;;-4.55;93.63
70968;BME280;58629;48.808;8.820;2024-01-10T04:03:51;97802.09;;;-4.51;94.67
70968;BME280;58629;48.808;8.820;2024-01-10T04:06:16;97809.75;;;-4.46;95.12
70968;BME280;58629;48.808;8.820;2024-01-10T04:08:41;97817.53;;;-4.46;94.98
70968;BME280;58629;48.808;8.820;2024-01-10T04:11:06;97812.34;;;-4.46;95.10
70968;BME280;58629;48.808;8.820;2024-01-10T04:13:34;97815.22;;;-4.48;93.61
70968;BME280;58629;48.808;8.820;2024-01-10T04:15:59;97821.91;;;-4.47;94.48
70968;BME280;58629;48.808;8.820;2024-01-10T04:18:25;97807.66;;;-4.44;95.54
70968;BME280;58629;48.808;8.820;2024-01-10T04:20:50;97818.47;;;-4.42;94.66
70968;BME280;58629;48.808;8.820;2024-01-10T04:23:16;97821.22;;;-4.38;94.70
70968;BME280;58629;48.808;8.820;2024-01-10T04:25:41;97817.88;;;-4.39;93.84
70968;BME280;58629;48.808;8.820;2024-01-10T04:28:06;97815.59;;;-4.41;93.94
70968;BME280;58629;48.808;8.820;2024-01-10T04:30:31;97820.28;;;-4.43;93.64
70968;BME280;58629;48.808;8.820;2024-01-10T04:32:57;97825.91;;;-4.41;94.03
70968;BME280;58629;48.808;8.820;2024-01-10T04:35:22;97822.88;;;-4.43;92.59
70968;BME280;58629;48.808;8.820;2024-01-10T04:37:47;97823.91;;;-4.44;92.40
70968;BME280;58629;48.808;8.820;2024-01-10T04:40:13;97823.91;;;-4.44;92.19
70968;BME280;58629;48.808;8.820;2024-01-10T04:42:38;97821.53;;;-4.40;92.93
70968;BME280;58629;48.808;8.820;2024-01-10T04:45:04;97808.78;;;-4.36;92.73
70968;BME280;58629;48.808;8.820;2024-01-10T04:47:29;97813.63;;;-4.35;93.02
70968;BME280;58629;48.808;8.820;2024-01-10T04:49:55;97815.47;;;-4.35;92.20
70968;BME280;58629;48.808;8.820;2024-01-10T04:52:20;97817.28;;;-4.36;93.06
70968;BME280;58629;48.808;8.820;2024-01-10T04:54:46;97813.94;;;-4.36;94.16
70968;BME280;58629;48.808;8.820;2024-01-10T04:57:11;97809.25;;;-4.34;95.27
70968;BME280;58629;48.808;8.820;2024-01-10T04:59:36;97812.69;;;-4.39;95.32
70968;BME280;58629;48.808;8.820;2024-01-10T05:02:02;97817.41;;;-4.41;93.28
70968;BME280;58629;48.808;8.820;2024-01-10T05:04:27;97813.56;;;-4.44;92.91
70968;BME280;58629;48.808;8.820;2024-01-10T05:06:52;97812.16;;;-4.50;93.73
70968;BME280;58629;48.808;8.820;2024-01-10T05:09:18;97816.41;;;-4.54;93.04
70968;BME280;58629;48.808;8.820;2024-01-10T05:11:44;97816.97;;;-4.57;92.79
70968;BME280;58629;48.808;8.820;2024-01-10T05:14:12;97816.31;;;-4.62;93.73
70968;BME280;58629;48.808;8.820;2024-01-10T05:16:37;97821.78;;;-4.64;94.01
70968;BME280;58629;48.808;8.820;2024-01-10T05:19:03;97815.84;;;-4.64;94.20
70968;BME280;58629;48.808;8.820;2024-01-10T05:21:30;97818.44;;;-4.64;93.58
70968;BME280;58629;48.808;8.820;2024-01-10T05:23:55;97817.19;;;-4.67;94.39
70968;BME280;58629;48.808;8.820;2024-01-10T05:26:21;97815.66;;;-4.68;94.31
70968;BME280;58629;48.808;8.820;2024-01-10T05:28:46;97811.66;;;-4.74;94.59
70968;BME280;58629;48.808;8.820;2024-01-10T05:31:14;97811.84;;;-4.70;95.36
70968;BME280;58629;48.808;8.820;2024-01-10T05:33:40;97817.78;;;-4.70;94.75
70968;BME280;58629;48.808;8.820;2024-01-10T05:36:08;97816.72;;;-4.69;94.76
70968;BME280;58629;48.808;8.820;2024-01-10T05:38:36;97813.81;;;-4.67;94.16
70968;BME280;58629;48.808;8.820;2024-01-10T05:41:02;97814.41;;;-4.70;94.87
70968;BME280;58629;48.808;8.820;2024-01-10T05:43:27;97813.28;;;-4.78;95.56
70968;BME280;58629;48.808;8.820;2024-01-10T05:45:52;97813.84;;;-4.81;94.87
70968;BME280;58629;48.808;8.820;2024-01-10T05:48:18;97812.34;;;-4.82;94.87
70968;BME280;58629;48.808;8.820;2024-01-10T05:50:43;97817.03;;;-4.84;94.20
70968;BME280;58629;48.808;8.820;2024-01-10T05:53:09;97814.53;;;-4.89;94.33
70968;BME280;58629;48.808;8.820;2024-01-10T05:55:35;97820.78;;;-4.90;95.24
70968;BME280;58629;48.808;8.820;2024-01-10T05:58:02;97818.75;;;-4.93;95.82
70968;BME280;58629;48.808;8.820;2024-01-10T06:00:27;97815.44;;;-4.93;96.66
70968;BME280;58629;48.808;8.820;2024-01-10T06:02:53;97823.25;;;-4.49;100.00
70968;BME280;58629;48.808;8.820;2024-01-10T06:05:18;97815.44;;;-3.69;100.00
70968;BME280;58629;48.808;8.820;2024-01-10T06:07:44;97806.75;;;-2.78;100.00
70968;BME280;58629;48.808;8.820;2024-01-10T06:10:09;97804.13;;;-1.92;100.00
70968;BME280;58629;48.808;8.820;2024-01-10T06:12:35;97808.56;;;-1.38;100.00
70968;BME280;58629;48.808;8.820;2024-01-10T06:15:01;97821.84;;;-1.02;100.00
70968;BME280;58629;48.808;8.820;2024-01-10T06:17:26;97813.72;;;-0.71;100.00
70968;BME280;58629;48.808;8.820;2024-01-10T06:19:52;97809.09;;;-0.45;100.00
70968;BME280;58629;48.808;8.820;2024-01-10T06:22:17;97816.06;;;-0.16;100.00
70968;BME280;58629;48.808;8.820;2024-01-10T06:24:43;97805.94;;;0.03;100.00
70968;BME280;58629;48.808;8.820;2024-01-10T06:27:09;97822.16;;;0.21;100.00
70968;BME280;58629;48.808;8.820;2024-01-10T06:29:37;97817.97;;;-0.25;92.48
70968;BME280;58629;48.808;8.820;2024-01-10T06:32:05;97815.44;;;-1.04;81.34
70968;BME280;58629;48.808;8.820;2024-01-10T06:34:32;97817.78;;;-1.49;82.02
70968;BME280;58629;48.808;8.820;2024-01-10T06:36:58;97819.13;;;-2.15;78.94
70968;BME280;58629;48.808;8.820;2024-01-10T06:39:23;97817.00;;;-2.64;80.00
70968;BME280;58629;48.808;8.820;2024-01-10T06:41:48;97819.00;;;-3.09;81.63
70968;BME280;58629;48.808;8.820;2024-01-10T06:44:14;97825.91;;;-3.43;83.63
70968;BME280;58629;48.808;8.820;2024-01-10T06:46:39;97824.38;;;-3.75;84.35
70968;BME280;58629;48.808;8.820;2024-01-10T06:49:05;97830.75;;;-4.03;84.72
70968;BME280;58629;48.808;8.820;2024-01-10T06:51:32;97820.88;;;-4.23;85.33
70968;BME280;58629;48.808;8.820;2024-01-10T06:53:58;97809.88;;;-4.51;84.38
70968;BME280;58629;48.808;8.820;2024-01-10T06:56:29;97831.56;;;-4.74;84.98
70968;BME280;58629;48.808;8.820;2024-01-10T06:58:54;97830.41;;;-4.68;87.26
70968;BME280;58629;48.808;8.820;2024-01-10T07:01:20;97835.13;;;-4.84;88.73
70968;BME280;58629;48.808;8.820;2024-01-10T07:03:47;97844.09;;;-4.95;90.83
70968;BME280;58629;48.808;8.820;2024-01-10T07:06:13;97854.16;;;-5.07;92.20
70968;BME280;58629;48.808;8.820;2024-01-10T07:08:41;97847.09;;;-5.15;93.45
70968;BME280;58629;48.808;8.820;2024-01-10T07:11:12;97857.13;;;-5.27;93.88
70968;BME280;58629;48.808;8.820;2024-01-10T07:13:38;97862.19;;;-5.36;94.19
70968;BME280;58629;48.808;8.820;2024-01-10T07:16:03;97864.56;;;-5.39;93.86
70968;BME280;58629;48.808;8.820;2024-01-10T07:18:29;97869.50;;;-5.43;94.78
70968;BME280;58629;48.808;8.820;2024-01-10T07:20:55;97868.09;;;-5.49;94.54
70968;BME280;58629;48.808;8.820;2024-01-10T07:23:21;97863.50;;;-5.52;95.17
70968;BME280;58629;48.808;8.820;2024-01-10T07:25:48;97858.44;;;-5.57;94.90
70968;BME280;58629;48.808;8.820;2024-01-10T07:28:13;97860.06;;;-5.61;94.42
70968;BME280;58629;48.808;8.820;2024-01-10T07:30:38;97859.09;;;-5.65;94.01
70968;BME280;58629;48.808;8.820;2024-01-10T07:33:04;97857.81;;;-5.67;93.79
70968;BME280;58629;48.808;8.820;2024-01-10T07:35:30;97860.69;;;-5.69;94.21
70968;BME280;58629;48.808;8.820;2024-01-10T07:37:55;97867.84;;;-5.66;94.16
70968;BME280;58629;48.808;8.820;2024-01-10T07:40:20;97861.94;;;-5.66;93.89
70968;BME280;58629;48.808;8.820;2024-01-10T07:42:47;97865.22;;;-5.61;94.97
70968;BME280;58629;48.808;8.820;2024-01-10T07:45:13;97873.69;;;-5.60;94.30
70968;BME280;58629;48.808;8.820;2024-01-10T07:47:38;97872.25;;;-5.66;94.51
70968;BME280;58629;48.808;8.820;2024-01-10T07:50:07;97870.38;;;-5.61;95.70
70968;BME280;58629;48.808;8.820;2024-01-10T07:52:32;97869.78;;;-5.58;96.66
70968;BME280;58629;48.808;8.820;2024-01-10T07:54:58;97880.72;;;-5.47;97.58
70968;BME280;58629;48.808;8.820;2024-01-10T07:57:23;97878.88;;;-5.47;98.20
70968;BME280;58629;48.808;8.820;2024-01-10T07:59:49;97884.44;;;-5.40;97.49
70968;BME280;58629;48.808;8.820;2024-01-10T08:02:14;97880.72;;;-5.34;98.11
70968;BME280;58629;48.808;8.820;2024-01-10T08:04:39;97881.09;;;-5.27;97.60
70968;BME280;58629;48.808;8.820;2024-01-10T08:07:05;97885.72;;;-5.23;97.09
70968;BME280;58629;48.808;8.820;2024-01-10T08:09:30;97895.47;;;-5.20;97.38
70968;BME280;58629;48.808;8.820;2024-01-10T08:11:55;97886.88;;;-5.16;97.04
70968;BME280;58629;48.808;8.820;2024-01-10T08:14:21;97891.91;;;-5.11;97.16
70968;BME280;58629;48.808;8.820;2024-01-10T08:16:46;97890.78;;;-5.05;96.61
70968;BME280;58629;48.808;8.820;2024-01-10T08:19:11;97898.44;;;-5.00;95.61
70968;BME280;58629;48.808;8.820;2024-01-10T08:21:37;97896.72;;;-4.91;95.43
70968;BME280;58629;48.808;8.820;2024-01-10T08:24:02;97890.31;;;-4.93;93.51
70968;BME280;58629;48.808;8.820;2024-01-10T08:26:28;97892.31;;;-4.90;93.58
70968;BME280;58629;48.808;8.820;2024-01-10T08:28:54;97899.22;;;-4.86;92.85
70968;BME280;58629;48.808;8.820;2024-01-10T08:31:19;97903.06;;;-4.83;93.25
70968;BME280;58629;48.808;8.820;2024-01-10T08:33:45;97897.00;;;-4.79;92.54
70968;BME280;58629;48.808;8.820;2024-01-10T08:36:12;97900.72;;;-4.71;93.11
70968;BME280;58629;48.808;8.820;2024-01-10T08:38:38;97899.38;;;-4.69;91.89
70968;BME280;58629;48.808;8.820;2024-01-10T08:41:03;97896.44;;;-4.62;91.37
70968;BME280;58629;48.808;8.820;2024-01-10T08:43:29;97898.41;;;-4.59;92.07
70968;BME280;58629;48.808;8.820;2024-01-10T08:45:54;97895.28;;;-4.56;91.31
70968;BME280;58629;48.808;8.820;2024-01-10T08:48:20;97898.50;;;-4.51;90.92
70968;BME280;58629;48.808;8.820;2024-01-10T08:50:45;97897.91;;;-4.48;91.63
70968;BME280;58629;48.808;8.820;2024-01-10T08:53:10;97895.25;;;-4.43;91.96
70968;BME280;58629;48.808;8.820;2024-01-10T08:55:36;97901.53;;;-4.35;91.59
70968;BME280;58629;48.808;8.820;2024-01-10T08:58:03;97900.19;;;-4.32;89.92
70968;BME280;58629;48.808;8.820;2024-01-10T09:00:28;97903.63;;;-4.23;91.43
70968;BME280;58629;48.808;8.820;2024-01-10T09:02:54;97902.16;;;-4.16;91.04
70968;BME280;58629;48.808;8.820;2024-01-10T09:05:20;97906.63;;;-4.08;91.05
70968;BME280;58629;48.808;8.820;2024-01-10T09:07:49;97906.72;;;-3.99;89.27
70968;BME280;58629;48.808;8.820;2024-01-10T09:10:15;97914.38;;;-3.94;88.71
70968;BME280;58629;48.808;8.820;2024-01-10T09:12:41;97917.59;;;-3.89;87.66
70968;BME280;58629;48.808;8.820;2024-01-10T09:15:11;97922.56;;;-3.79;87.66
70968;BME280;58629;48.808;8.820;2024-01-10T09:17:38;97914.56;;;-3.69;86.03
70968;BME280;58629;48.808;8.820;2024-01-10T09:20:04;97918.72;;;-3.59;84.03
70968;BME280;58629;48.808;8.820;2024-01-10T09:22:29;97922.41;;;-3.52;84.50
70968;BME280;58629;48.808;8.820;2024-01-10T09:24:55;97926.41;;;-3.45;84.27
70968;BME280;58629;48.808;8.820;2024-01-10T09:27:20;97929.66;;;-3.40;83.90
70968;BME280;58629;48.808;8.820;2024-01-10T09:29:48;97935.47;;;-3.34;83.53
70968;BME280;58629;48.808;8.820;2024-01-10T09:32:13;97933.53;;;-3.29;83.52
70968;BME280;58629;48.808;8.820;2024-01-10T09:34:38;97927.75;;;-3.26;82.98
70968;BME280;58629;48.808;8.820;2024-01-10T09:37:04;97928.06;;;-3.19;83.26
70968;BME280;58629;48.808;8.820;2024-01-10T09:39:30;97926.72;;;-3.16;82.35
70968;BME280;58629;48.808;8.820;2024-01-10T09:41:58;97931.50;;;-3.10;82.59
70968;BME280;58629;48.808;8.820;2024-01-10T09:44:24;97937.75;;;-3.02;82.86
70968;BME280;58629;48.808;8.820;2024-01-10T09:46:52;97927.28;;;-2.97;82.94
70968;BME280;58629;48.808;8.820;2024-01-10T09:49:18;97930.63;;;-2.97;82.53
70968;BME280;58629;48.808;8.820;2024-01-10T09:51:47;97927.31;;;-2.89;83.01
70968;BME280;58629;48.808;8.820;2024-01-10T09:54:15;97915.28;;;-2.85;81.87
70968;BME280;58629;48.808;8.820;2024-01-10T09:56:41;97917.75;;;-2.80;80.47
70968;BME280;58629;48.808;8.820;2024-01-10T09:59:07;97925.84;;;-2.73;80.74
70968;BME280;58629;48.808;8.820;2024-01-10T10:01:38;97927.84;;;-2.70;79.81
70968;BME280;58629;48.808;8.820;2024-01-10T10:04:07;97924.31;;;-2.65;80.44
70968;BME280;58629;48.808;8.820;2024-01-10T10:06:34;97919.47;;;-2.58;81.09
70968;BME280;58629;48.808;8.820;2024-01-10T10:09:00;97918.75;;;-2.50;80.94
70968;BME280;58629;48.808;8.820;2024-01-10T10:11:25;97917.69;;;-2.40;79.31
70968;BME280;58629;48.808;8.820;2024-01-10T10:13:51;97911.91;;;-2.29;77.64
70968;BME280;58629;48.808;8.820;2024-01-10T10:16:23;97916.94;;;-2.24;77.27
70968;BME280;58629;48.808;8.820;2024-01-10T10:18:50;97901.69;;;-2.25;76.56
70968;BME280;58629;48.808;8.820;2024-01-10T10:21:16;97908.72;;;-2.26;77.04
70968;BME280;58629;48.808;8.820;2024-01-10T10:23:57;97909.78;;;-2.18;76.75
70968;BME280;58629;48.808;8.820;2024-01-10T10:26:23;97912.56;;;-2.06;75.85
70968;BME280;58629;48.808;8.820;2024-01-10T10:28:50;97908.25;;;-1.94;75.03
70968;BME280;58629;48.808;8.820;2024-01-10T10:31:17;97905.06;;;-1.91;74.51
70968;BME280;58629;48.808;8.820;2024-01-10T10:33:43;97910.41;;;-1.79;74.16
70968;BME280;58629;48.808;8.820;2024-01-10T10:36:09;97895.88;;;-1.80;74.64
70968;BME280;58629;48.808;8.820;2024-01-10T10:38:35;97902.16;;;-1.81;75.22
70968;BME280;58629;48.808;8.820;2024-01-10T10:41:05;97897.72;;;-1.80;74.48
70968;BME280;58629;48.808;8.820;2024-01-10T10:43:34;97899.06;;;-1.74;75.17
70968;BME280;58629;48.808;8.820;2024-01-10T10:46:07;97894.66;;;-1.65;73.81
70968;BME280;58629;48.808;8.820;2024-01-10T10:48:33;97900.75;;;-1.61;73.98
70968;BME280;58629;48.808;8.820;2024-01-10T10:51:10;97903.94;;;-1.55;75.18
70968;BME280;58629;48.808;8.820;2024-01-10T10:53:38;97904.09;;;-1.52;75.44
70968;BME280;58629;48.808;8.820;2024-01-10T10:56:07;97894.28;;;-1.46;74.96
70968;BME280;58629;48.808;8.820;2024-01-10T10:58:41;97893.25;;;-1.45;74.30
70968;BME280;58629;48.808;8.820;2024-01-10T11:01:09;97895.38;;;-1.39;74.52
70968;BME280;58629;48.808;8.820;2024-01-10T11:03:36;97891.69;;;-1.38;75.37
70968;BME280;58629;48.808;8.820;2024-01-10T11:06:03;97889.72;;;-1.41;73.54
70968;BME280;58629;48.808;8.820;2024-01-10T11:08:38;97896.28;;;-1.35;74.21
70968;BME280;58629;48.808;8.820;2024-01-10T11:11:12;97893.81;;;-1.31;73.84
70968;BME280;58629;48.808;8.820;2024-01-10T11:13:56;97890.59;;;-1.28;74.60
70968;BME280;58629;48.808;8.820;2024-01-10T11:16:51;97890.72;;;-1.25;74.60
70968;BME280;58629;48.808;8.820;2024-01-10T11:24:47;97891.47;;;-1.07;74.64
70968;BME280;58629;48.808;8.820;2024-01-10T11:27:14;97891.72;;;-1.00;74.51
70968;BME280;58629;48.808;8.820;2024-01-10T11:29:41;97891.81;;;-0.88;74.38
70968;BME280;58629;48.808;8.820;2024-01-10T11:32:13;97880.75;;;-0.76;74.53
70968;BME280;58629;48.808;8.820;2024-01-10T11:34:54;97884.53;;;-0.65;74.08
70968;BME280;58629;48.808;8.820;2024-01-10T11:37:24;97884.47;;;-0.57;73.22
70968;BME280;58629;48.808;8.820;2024-01-10T11:39:52;97887.38;;;-0.58;71.76
70968;BME280;58629;48.808;8.820;2024-01-10T11:42:22;97890.56;;;-0.53;72.39
70968;BME280;58629;48.808;8.820;2024-01-10T11:44:49;97878.72;;;-0.42;72.53
70968;BME280;58629;48.808;8.820;2024-01-10T11:47:15;97878.97;;;-0.35;73.02
70968;BME280;58629;48.808;8.820;2024-01-10T11:49:40;97879.09;;;-0.31;72.41
70968;BME280;58629;48.808;8.820;2024-01-10T11:52:06;97879.22;;;-0.28;71.40
70968;BME280;58629;48.808;8.820;2024-01-10T11:57:07;97881.63;;;0.19;76.98
70968;BME280;58629;48.808;8.820;2024-01-10T11:59:32;97886.59;;;0.44;75.95
70968;BME280;58629;48.808;8.820;2024-01-10T12:01:58;97882.31;;;0.72;77.68
70968;BME280;58629;48.808;8.820;2024-01-10T12:04:24;97882.25;;;1.17;80.25
70968;BME280;58629;48.808;8.820;2024-01-10T12:06:52;97884.38;;;1.75;89.15
70968;BME280;58629;48.808;8.820;2024-01-10T12:09:17;97879.41;;;1.98;80.70
70968;BME280;58629;48.808;8.820;2024-01-10T12:11:43;97876.78;;;2.26;79.71
70968;BME280;58629;48.808;8.820;2024-01-10T12:14:08;97878.06;;;2.32;71.06
70968;BME280;58629;48.808;8.820;2024-01-10T12:16:34;97883.34;;;2.47;76.61
70968;BME280;58629;48.808;8.820;2024-01-10T12:19:00;97880.97;;;2.42;67.88
70968;BME280;58629;48.808;8.820;2024-01-10T12:21:25;97875.56;;;2.08;64.91
70968;BME280;58629;48.808;8.820;2024-01-10T12:23:51;97883.66;;;1.91;65.65
70968;BME280;58629;48.808;8.820;2024-01-10T12:26:19;97885.81;;;1.61;65.40
70968;BME280;58629;48.808;8.820;2024-01-10T12:29:00;97879.97;;;1.40;65.16
70968;BME280;58629;48.808;8.820;2024-01-10T12:31:29;97877.91;;;1.21;65.17
70968;BME280;58629;48.808;8.820;2024-01-10T12:33:55;97874.75;;;1.04;65.52
70968;BME280;58629;48.808;8.820;2024-01-10T12:36:21;97869.66;;;0.95;66.85
70968;BME280;58629;48.808;8.820;2024-01-10T12:38:46;97868.34;;;0.89;67.18
70968;BME280;58629;48.808;8.820;2024-01-10T12:41:14;97874.19;;;0.86;67.25
70968;BME280;58629;48.808;8.820;2024-01-10T12:43:40;97868.22;;;0.85;68.08
70968;BME280;58629;48.808;8.820;2024-01-10T12:46:14;97873.31;;;0.82;66.88
70968;BME280;58629;48.808;8.820;2024-01-10T12:48:41;97873.66;;;0.80;67.55
70968;BME280;58629;48.808;8.820;2024-01-10T12:51:13;97869.19;;;0.81;67.52
70968;BME280;58629;48.808;8.820;2024-01-10T12:53:40;97870.28;;;0.80;66.89
70968;BME280;58629;48.808;8.820;2024-01-10T12:56:07;97866.91;;;0.79;67.24
70968;BME280;58629;48.808;8.820;2024-01-10T12:58:35;97872.53;;;0.81;67.79
70968;BME280;58629;48.808;8.820;2024-01-10T13:01:02;97869.28;;;0.72;66.65
70968;BME280;58629;48.808;8.820;2024-01-10T13:03:29;97859.28;;;0.74;67.35